Doris, Washington
Current Conditions -  °F | °C
As of 1:07 PM on Friday 31 Oct 2014 (Local Time) from K1YT Reporting Station
Broken Clouds Broken Clouds  
Wind Chill: 13°   Ceiling: 10000
Heat Index: 13°   Visibility: 10mi
Dew Point: 10°   Wind: 2mph
Humidity: 82%   Direction: 340°NNW
Pressure: 29.73"   Gusts: NA
Location:  46.8679°N, 120.008°W
Report Text: K1YT 312007Z AUTO 34002KT 10SM SCT065 BKN100 13/10 A2973 RMK AO2
Loading
Personal Weather Stations






























Interactive Weather Map
Tropical Storm Tracking
New forecast layout! Learn more

10-Day Weather Forecast

Advertisements
Track Severe Weather on mobile